createdAt,value
2022-08-20T00:01:20.988Z,6.27
2022-08-20T00:03:50.349Z,6.50
2022-08-20T00:06:25.374Z,6.10
2022-08-20T00:08:53.693Z,6.20
2022-08-20T00:11:25.173Z,6.20
2022-08-20T00:13:56.217Z,6.20
2022-08-20T00:16:26.927Z,6.27
2022-08-20T00:18:55.396Z,6.70
2022-08-20T00:21:25.660Z,6.20
2022-08-20T00:23:57.695Z,6.13
2022-08-20T00:26:26.662Z,6.00
2022-08-20T00:28:55.873Z,6.43
2022-08-20T00:31:25.784Z,6.20
2022-08-20T00:33:54.490Z,6.43
2022-08-20T00:36:32.108Z,7.03
2022-08-20T00:39:02.126Z,7.07
2022-08-20T00:41:31.063Z,6.67
2022-08-20T00:44:09.581Z,6.47
2022-08-20T00:46:38.671Z,6.90
2022-08-20T00:49:09.824Z,6.93
2022-08-20T00:51:42.524Z,7.40
2022-08-20T00:54:15.128Z,7.80
2022-08-20T00:56:46.319Z,8.40
2022-08-20T00:59:28.066Z,7.87
2022-08-20T01:01:57.795Z,7.63
2022-08-20T01:04:28.822Z,7.13
2022-08-20T01:06:58.811Z,7.00
2022-08-20T01:09:33.391Z,6.87
2022-08-20T01:12:17.409Z,7.00
2022-08-20T01:14:47.783Z,6.50
2022-08-20T01:17:18.829Z,7.03
2022-08-20T01:19:51.981Z,6.90
2022-08-20T01:22:46.532Z,6.60
2022-08-20T01:25:21.682Z,7.20
2022-08-20T01:27:55.212Z,6.73
2022-08-20T01:30:27.813Z,6.70
2022-08-20T01:32:57.361Z,6.13
2022-08-20T01:35:27.109Z,6.33
2022-08-20T01:37:56.079Z,6.70
2022-08-20T01:40:45.860Z,6.47
2022-08-20T01:43:16.022Z,6.70
2022-08-20T01:45:45.826Z,7.10
2022-08-20T01:48:18.873Z,6.93
2022-08-20T01:50:55.467Z,6.67
2022-08-20T01:53:33.584Z,6.93
2022-08-20T01:56:02.972Z,6.80
2022-08-20T01:58:33.770Z,6.37
2022-08-20T02:01:02.119Z,6.93
2022-08-20T02:03:36.282Z,7.03
2022-08-20T02:06:07.159Z,6.57
2022-08-20T02:08:35.412Z,6.83
2022-08-20T02:11:03.834Z,7.27
2022-08-20T02:13:33.912Z,6.43
2022-08-20T02:16:02.307Z,7.77
2022-08-20T02:18:30.692Z,7.03
2022-08-20T02:20:59.016Z,6.73
2022-08-20T02:23:27.297Z,6.87
2022-08-20T02:25:55.728Z,6.30
2022-08-20T02:28:24.338Z,6.77
2022-08-20T02:30:56.365Z,6.70
2022-08-20T02:33:25.558Z,7.07
2022-08-20T02:35:56.547Z,6.80
2022-08-20T02:38:25.581Z,6.60
2022-08-20T02:40:54.392Z,7.17
2022-08-20T02:43:22.816Z,6.77
2022-08-20T02:45:51.634Z,6.57
2022-08-20T02:48:23.297Z,6.90
2022-08-20T02:50:54.627Z,6.60
2022-08-20T02:53:24.520Z,6.90
2022-08-20T02:55:53.434Z,6.80
2022-08-20T02:58:22.222Z,7.43
2022-08-20T03:00:51.804Z,7.03
2022-08-20T03:03:22.855Z,6.60
2022-08-20T03:05:53.921Z,7.27
2022-08-20T03:08:23.825Z,7.10
2022-08-20T03:10:53.372Z,7.60
2022-08-20T03:13:23.031Z,7.53
2022-08-20T03:15:58.108Z,7.30
2022-08-20T03:18:31.305Z,7.00
2022-08-20T03:20:59.925Z,6.60
2022-08-20T03:23:28.259Z,7.00
2022-08-20T03:25:56.766Z,7.03
2022-08-20T03:28:25.200Z,6.50
2022-08-20T03:30:54.772Z,7.30
2022-08-20T03:33:24.143Z,7.30
2022-08-20T03:35:54.297Z,7.03
2022-08-20T03:38:32.254Z,7.83
2022-08-20T03:41:02.270Z,6.53
2022-08-20T03:43:31.158Z,7.00
2022-08-20T03:45:59.465Z,7.40
2022-08-20T03:48:28.342Z,8.13
2022-08-20T03:51:00.872Z,8.07
2022-08-20T03:53:31.895Z,7.30
2022-08-20T03:56:04.488Z,7.23
2022-08-20T03:58:34.805Z,7.47
2022-08-20T04:01:06.368Z,7.50
2022-08-20T04:03:35.303Z,7.90
2022-08-20T04:06:05.729Z,7.20
2022-08-20T04:08:34.154Z,8.03
2022-08-20T04:11:02.511Z,7.20
2022-08-20T04:13:32.117Z,7.57
2022-08-20T04:16:03.679Z,7.20
2022-08-20T04:18:32.303Z,7.53
2022-08-20T04:21:00.610Z,6.93
2022-08-20T04:23:31.211Z,7.37
2022-08-20T04:26:01.018Z,7.23
2022-08-20T04:28:30.051Z,8.07
2022-08-20T04:31:00.825Z,7.43
2022-08-20T04:33:33.817Z,7.57
2022-08-20T04:36:06.518Z,7.40
2022-08-20T04:38:50.466Z,6.97
2022-08-20T04:41:23.266Z,6.97
2022-08-20T04:43:54.071Z,7.30
2022-08-20T04:46:23.950Z,7.63
2022-08-20T04:48:52.373Z,7.90
2022-08-20T04:51:23.355Z,7.80
2022-08-20T04:53:55.090Z,7.67
2022-08-20T04:56:24.634Z,7.47
2022-08-20T04:58:54.621Z,8.00
2022-08-20T05:01:24.308Z,8.07
2022-08-20T05:03:55.016Z,7.97
2022-08-20T05:06:25.899Z,8.13
2022-08-20T05:08:56.378Z,8.20
2022-08-20T05:11:35.643Z,7.83
2022-08-20T05:14:08.289Z,7.67
2022-08-20T05:16:40.513Z,7.40
2022-08-20T05:19:11.973Z,7.97
2022-08-20T05:21:41.062Z,8.33
2022-08-20T05:24:11.868Z,8.47
2022-08-20T05:26:40.329Z,8.50
2022-08-20T05:29:08.596Z,8.10
2022-08-20T05:31:37.678Z,8.03
2022-08-20T05:34:10.002Z,8.77
2022-08-20T05:36:40.259Z,8.20
2022-08-20T05:39:10.369Z,7.73
2022-08-20T05:41:39.971Z,7.87
2022-08-20T05:44:11.012Z,8.17
2022-08-20T05:46:40.951Z,8.70
2022-08-20T05:49:09.608Z,8.70
2022-08-20T05:51:38.488Z,8.70
2022-08-20T05:54:07.990Z,8.33
2022-08-20T05:56:37.867Z,8.63
2022-08-20T05:59:08.550Z,8.67
2022-08-20T06:01:38.841Z,8.20
2022-08-20T06:04:25.782Z,8.20
2022-08-20T06:06:55.769Z,8.83
2022-08-20T06:09:31.346Z,8.30
2022-08-20T06:12:03.717Z,8.43
2022-08-20T06:14:32.972Z,8.30
2022-08-20T06:17:06.355Z,8.20
2022-08-20T06:19:35.741Z,8.30
2022-08-20T06:22:17.250Z,8.83
2022-08-20T06:24:48.023Z,8.23
2022-08-20T06:27:20.650Z,9.03
2022-08-20T06:29:49.740Z,9.50
2022-08-20T06:32:19.938Z,9.90
2022-08-20T06:35:02.314Z,10.00
2022-08-20T06:37:33.121Z,9.10
2022-08-20T06:40:04.458Z,10.40
2022-08-20T06:42:34.378Z,10.37
2022-08-20T06:45:04.884Z,12.47
2022-08-20T06:47:33.546Z,9.77
2022-08-20T06:50:01.886Z,10.20
2022-08-20T06:52:52.015Z,9.60
2022-08-20T06:55:18.895Z,9.57
2022-08-20T06:57:49.177Z,10.20
2022-08-20T07:00:21.081Z,11.07
2022-08-20T07:02:49.595Z,10.73
2022-08-20T07:05:17.929Z,11.53
2022-08-20T07:07:47.024Z,11.73
2022-08-20T07:10:17.024Z,10.93
2022-08-20T07:12:46.957Z,11.83
2022-08-20T07:15:17.055Z,11.80
2022-08-20T07:17:50.893Z,11.53
2022-08-20T07:20:19.951Z,10.87
2022-08-20T07:22:48.826Z,12.07
2022-08-20T07:25:19.880Z,11.67
2022-08-20T07:27:49.159Z,12.07
2022-08-20T07:30:57.104Z,12.33
2022-08-20T07:33:28.413Z,11.20
2022-08-20T07:35:57.217Z,10.90
2022-08-20T07:38:27.666Z,11.73
2022-08-20T07:40:57.665Z,11.90
2022-08-20T07:43:26.592Z,11.23
2022-08-20T07:46:01.236Z,11.83
2022-08-20T07:48:32.435Z,12.53
2022-08-20T07:51:03.055Z,12.57
2022-08-20T07:53:35.606Z,12.50
2022-08-20T07:56:06.676Z,13.50
2022-08-20T07:58:35.905Z,14.73
2022-08-20T08:01:05.951Z,15.23
2022-08-20T08:03:37.652Z,15.30
2022-08-20T08:06:29.741Z,15.33
2022-08-20T08:09:28.515Z,16.83
2022-08-20T08:12:34.856Z,17.40
2022-08-20T08:15:25.094Z,17.83
2022-08-20T08:18:02.131Z,18.20
2022-08-20T08:20:46.688Z,19.83
2022-08-20T08:23:57.003Z,20.63
2022-08-20T08:26:38.117Z,19.03
2022-08-20T08:29:16.464Z,20.40
2022-08-20T08:31:50.777Z,21.07
2022-08-20T08:34:46.945Z,20.50
2022-08-20T08:40:22.393Z,19.43
2022-08-20T08:42:55.959Z,20.30
2022-08-20T08:45:26.497Z,18.37
2022-08-20T08:47:57.992Z,18.43
2022-08-20T08:50:54.321Z,17.90
2022-08-20T08:53:26.354Z,18.43
2022-08-20T08:55:54.694Z,18.30
2022-08-20T08:58:29.318Z,18.23
2022-08-20T09:01:01.989Z,17.47
2022-08-20T09:03:39.983Z,18.43
2022-08-20T09:06:24.338Z,17.43
2022-08-20T09:09:01.208Z,14.93
2022-08-20T09:11:56.351Z,15.30
2022-08-20T09:14:27.345Z,13.87
2022-08-20T09:17:10.033Z,14.67
2022-08-20T09:20:06.616Z,13.60
2022-08-20T09:22:41.704Z,12.90
2022-08-20T09:25:10.910Z,12.00
2022-08-20T09:27:41.631Z,12.67
2022-08-20T09:30:17.297Z,13.10
2022-08-20T09:33:01.726Z,12.30
2022-08-20T09:35:36.726Z,12.43
2022-08-20T09:38:18.357Z,12.07
2022-08-20T09:41:09.320Z,13.57
2022-08-20T09:43:45.807Z,12.30
2022-08-20T09:46:27.325Z,13.20
2022-08-20T09:49:04.043Z,13.47
2022-08-20T09:51:34.414Z,13.03
2022-08-20T09:54:08.351Z,13.73
2022-08-20T09:56:37.106Z,12.17
2022-08-20T09:59:05.470Z,11.00
2022-08-20T10:01:34.990Z,10.93
2022-08-20T10:04:03.549Z,11.47
2022-08-20T10:06:37.147Z,10.70
2022-08-20T10:09:07.769Z,10.20
2022-08-20T10:11:36.109Z,10.57
2022-08-20T10:14:05.242Z,10.73
2022-08-20T10:16:34.566Z,9.70
2022-08-20T10:19:02.877Z,9.20
2022-08-20T10:21:33.369Z,8.17
2022-08-20T10:24:05.686Z,8.90
2022-08-20T10:26:35.387Z,10.23
2022-08-20T10:29:03.797Z,9.77
2022-08-20T10:31:32.610Z,10.37
2022-08-20T10:34:00.978Z,8.60
2022-08-20T10:36:29.424Z,41.23
2022-08-20T10:38:58.028Z,24.23
2022-08-20T10:41:27.294Z,8.67
2022-08-20T10:43:57.040Z,7.03
2022-08-20T10:46:25.727Z,6.97
2022-08-20T10:48:53.997Z,7.33
2022-08-20T10:51:22.404Z,7.80
2022-08-20T10:54:00.937Z,7.27
2022-08-20T10:56:29.561Z,6.97
2022-08-20T10:58:59.310Z,9.33
2022-08-20T11:01:31.602Z,6.00
2022-08-20T11:04:02.649Z,5.47
2022-08-20T11:06:31.140Z,5.83
2022-08-20T11:08:59.575Z,8.47
2022-08-20T11:11:27.929Z,4.60
2022-08-20T11:13:56.815Z,5.03
2022-08-20T11:16:28.551Z,6.30
2022-08-20T11:18:57.057Z,5.70
2022-08-20T11:21:25.394Z,5.47
2022-08-20T11:23:53.674Z,6.00
2022-08-20T11:26:24.939Z,5.73
2022-08-20T11:28:53.314Z,5.73
2022-08-20T11:31:21.576Z,5.97
2022-08-20T11:33:51.271Z,5.87
2022-08-20T11:36:19.588Z,4.87
2022-08-20T11:38:48.333Z,5.40
2022-08-20T11:41:17.091Z,3.67
2022-08-20T11:44:04.681Z,3.50
2022-08-20T11:46:34.473Z,4.00
2022-08-20T11:49:04.799Z,3.20
2022-08-20T11:51:48.974Z,2.57
2022-08-20T11:54:18.525Z,3.00
2022-08-20T11:56:46.883Z,3.13
2022-08-20T11:59:15.683Z,3.37
2022-08-20T12:01:46.639Z,3.60
2022-08-20T12:04:33.863Z,3.70
2022-08-20T12:07:11.160Z,3.77
2022-08-20T12:09:40.036Z,4.00
2022-08-20T12:12:19.479Z,3.83
2022-08-20T12:14:48.107Z,5.30
2022-08-20T12:17:19.905Z,6.53
2022-08-20T12:19:49.728Z,5.30
2022-08-20T12:22:24.564Z,5.67
2022-08-20T12:24:54.280Z,5.87
2022-08-20T12:27:25.052Z,5.67
2022-08-20T12:29:55.705Z,6.10
2022-08-20T12:32:25.813Z,6.73
2022-08-20T12:34:56.168Z,5.80
2022-08-20T12:37:26.451Z,5.87
2022-08-20T12:39:58.361Z,6.10
2022-08-20T12:42:28.034Z,6.40
2022-08-20T12:44:56.560Z,6.70
2022-08-20T12:47:28.889Z,3.77
2022-08-20T12:50:01.979Z,3.60
2022-08-20T12:52:31.555Z,4.03
2022-08-20T12:55:00.755Z,3.60
2022-08-20T12:57:30.945Z,3.60
2022-08-20T13:00:01.033Z,4.00
2022-08-20T13:02:32.284Z,3.87
2022-08-20T13:05:05.040Z,4.10
2022-08-20T13:07:34.650Z,3.67
2022-08-20T13:10:03.706Z,4.07
2022-08-20T13:12:32.176Z,4.10
2022-08-20T13:15:00.491Z,4.33
2022-08-20T13:17:38.764Z,4.27
2022-08-20T13:20:13.880Z,4.60
2022-08-20T13:22:43.350Z,4.60
2022-08-20T13:25:13.555Z,4.70
2022-08-20T13:27:42.714Z,4.10
2022-08-20T13:30:13.367Z,4.13
2022-08-20T13:32:41.929Z,4.30
2022-08-20T13:35:13.424Z,3.73
2022-08-20T13:37:42.519Z,3.40
2022-08-20T13:40:11.976Z,4.40
2022-08-20T13:42:41.027Z,7.03
2022-08-20T13:45:11.039Z,3.97
2022-08-20T13:47:41.781Z,3.47
2022-08-20T13:50:15.297Z,3.47
2022-08-20T13:52:44.840Z,3.70
2022-08-20T13:55:16.813Z,3.30
2022-08-20T13:57:47.249Z,2.90
2022-08-20T14:00:19.532Z,2.83
2022-08-20T14:02:48.576Z,2.70
2022-08-20T14:05:19.022Z,2.83
2022-08-20T14:07:49.329Z,2.70
2022-08-20T14:10:20.026Z,3.23
2022-08-20T14:12:48.501Z,3.83
2022-08-20T14:15:17.829Z,3.10
2022-08-20T14:17:51.807Z,3.27
2022-08-20T14:20:23.627Z,2.80
2022-08-20T14:22:52.343Z,3.07
2022-08-20T14:25:22.577Z,2.70
2022-08-20T14:27:52.542Z,3.50
2022-08-20T14:30:24.135Z,3.30
2022-08-20T14:32:53.345Z,3.23
2022-08-20T14:35:23.760Z,2.87
2022-08-20T14:37:53.798Z,2.50
2022-08-20T14:40:24.374Z,3.20
2022-08-20T14:42:53.536Z,2.87
2022-08-20T14:45:23.287Z,2.50
2022-08-20T14:47:54.245Z,2.60
2022-08-20T14:50:27.597Z,3.00
2022-08-20T14:52:57.303Z,3.20
2022-08-20T14:55:28.377Z,3.40
2022-08-20T14:57:57.111Z,3.07
2022-08-20T15:00:28.987Z,3.20
2022-08-20T15:02:57.439Z,3.23
2022-08-20T15:05:28.221Z,3.10
2022-08-20T15:07:59.396Z,3.30
2022-08-20T15:10:30.629Z,3.27
2022-08-20T15:13:00.138Z,3.33
2022-08-20T15:15:28.767Z,3.23
2022-08-20T15:18:00.493Z,3.20
2022-08-20T15:20:33.284Z,3.40
2022-08-20T15:23:02.173Z,3.50
2022-08-20T15:25:36.641Z,3.13
2022-08-20T15:28:07.751Z,3.23
2022-08-20T15:30:36.609Z,3.27
2022-08-20T15:33:05.353Z,3.33
2022-08-20T15:35:35.367Z,3.33
2022-08-20T15:38:03.768Z,3.03
2022-08-20T15:40:34.170Z,3.10
2022-08-20T15:43:04.371Z,3.20
2022-08-20T15:45:33.795Z,3.50
2022-08-20T15:48:10.696Z,3.20
2022-08-20T15:50:58.137Z,3.13
2022-08-20T15:53:33.230Z,2.77
2022-08-20T15:56:09.985Z,2.70
2022-08-20T15:58:49.819Z,3.07
2022-08-20T16:01:28.908Z,2.63
2022-08-20T16:04:26.058Z,2.70
2022-08-20T16:07:02.030Z,3.13
2022-08-20T16:09:49.969Z,2.67
2022-08-20T16:12:23.505Z,2.57
2022-08-20T16:14:58.899Z,2.70
2022-08-20T16:17:34.300Z,2.10
2022-08-20T16:20:08.751Z,2.40
2022-08-20T16:22:43.223Z,2.30
2022-08-20T16:25:12.639Z,2.40
2022-08-20T16:27:53.485Z,2.00
2022-08-20T16:30:30.201Z,1.70
2022-08-20T16:33:08.812Z,1.87
2022-08-20T16:35:42.924Z,1.93
2022-08-20T16:38:20.915Z,1.73
2022-08-20T16:40:52.712Z,1.80
2022-08-20T16:43:27.099Z,1.83
2022-08-20T16:46:03.020Z,2.00
2022-08-20T16:48:36.620Z,1.80
2022-08-20T16:51:09.528Z,2.10
2022-08-20T16:53:40.445Z,1.90
2022-08-20T16:56:09.252Z,2.40
2022-08-20T16:58:38.037Z,2.10
2022-08-20T17:01:09.944Z,2.20
2022-08-20T17:03:40.114Z,2.33
2022-08-20T17:06:18.224Z,2.60
2022-08-20T17:08:52.023Z,2.00
2022-08-20T17:11:26.750Z,2.30
2022-08-20T17:14:06.679Z,1.90
2022-08-20T17:16:37.782Z,1.90
2022-08-20T17:19:19.724Z,2.10
2022-08-20T17:21:49.806Z,1.97
2022-08-20T17:24:25.647Z,2.00
2022-08-20T17:27:00.777Z,2.50
2022-08-20T17:29:31.931Z,1.90
2022-08-20T17:32:02.489Z,2.00
2022-08-20T17:34:33.325Z,1.97
2022-08-20T17:37:08.595Z,2.20
2022-08-20T17:39:47.508Z,2.37
2022-08-20T17:42:20.527Z,2.00
2022-08-20T17:44:53.958Z,2.00
2022-08-20T17:47:30.489Z,2.00
2022-08-20T17:50:03.286Z,2.30
2022-08-20T17:52:40.336Z,2.30
2022-08-20T17:55:12.176Z,2.07
2022-08-20T17:57:43.968Z,2.37
2022-08-20T18:00:15.633Z,2.43
2022-08-20T18:02:44.864Z,2.57
2022-08-20T18:05:19.715Z,2.60
2022-08-20T18:07:59.929Z,2.60
2022-08-20T18:10:31.268Z,2.73
2022-08-20T18:13:08.453Z,2.40
2022-08-20T18:15:43.856Z,2.77
2022-08-20T18:18:29.494Z,2.33
2022-08-20T18:21:21.855Z,2.40
2022-08-20T18:23:55.832Z,2.37
2022-08-20T18:26:30.167Z,2.47
2022-08-20T18:29:08.527Z,2.33
2022-08-20T18:31:45.702Z,2.33
2022-08-20T18:34:17.540Z,2.20
2022-08-20T18:36:55.605Z,2.50
2022-08-20T18:39:27.891Z,4.53
2022-08-20T18:42:03.710Z,3.40
2022-08-20T18:44:43.918Z,2.90
2022-08-20T18:47:22.280Z,2.67
2022-08-20T18:50:02.312Z,3.00
2022-08-20T18:52:33.054Z,2.50
2022-08-20T18:55:05.214Z,2.80
2022-08-20T18:57:41.203Z,2.93
2022-08-20T19:00:13.894Z,3.80
2022-08-20T19:02:56.641Z,2.80
2022-08-20T19:05:29.396Z,3.07
2022-08-20T19:08:02.042Z,2.80
2022-08-20T19:10:47.865Z,2.87
2022-08-20T19:13:52.882Z,2.50
2022-08-20T19:16:30.020Z,2.80
2022-08-20T19:18:58.518Z,2.47
2022-08-20T19:21:31.348Z,2.70
2022-08-20T19:24:04.044Z,2.67
2022-08-20T19:26:40.588Z,2.60
2022-08-20T19:29:15.506Z,2.67
2022-08-20T19:31:44.133Z,2.97
2022-08-20T19:34:21.690Z,2.60
2022-08-20T19:36:57.684Z,2.33
2022-08-20T19:39:28.073Z,2.43
2022-08-20T19:42:01.713Z,2.80
2022-08-20T19:44:39.538Z,2.67
2022-08-20T19:47:18.021Z,2.53
2022-08-20T19:49:59.112Z,3.03
2022-08-20T19:52:40.050Z,3.33
2022-08-20T19:55:26.773Z,3.03
2022-08-20T19:57:57.757Z,3.60
2022-08-20T20:00:31.505Z,3.27
2022-08-20T20:03:10.237Z,5.50
2022-08-20T20:05:51.179Z,6.20
2022-08-20T20:08:20.214Z,4.70
2022-08-20T20:10:54.770Z,3.70
2022-08-20T20:13:25.265Z,4.67
2022-08-20T20:15:58.392Z,3.07
2022-08-20T20:18:29.243Z,2.50
2022-08-20T20:21:10.607Z,2.73
2022-08-20T20:23:46.096Z,5.30
2022-08-20T20:26:19.966Z,4.03
2022-08-20T20:28:51.176Z,4.57
2022-08-20T20:31:25.882Z,3.50
2022-08-20T20:33:57.765Z,3.33
2022-08-20T20:36:37.331Z,2.50
2022-08-20T20:39:13.703Z,3.00
2022-08-20T20:41:53.312Z,3.30
2022-08-20T20:44:25.583Z,3.13
2022-08-20T20:46:58.273Z,3.33
2022-08-20T20:49:28.644Z,3.07
2022-08-20T20:52:00.549Z,3.30
2022-08-20T20:54:32.318Z,3.23
2022-08-20T20:57:03.865Z,3.30
2022-08-20T20:59:35.379Z,3.13
2022-08-20T21:02:05.753Z,2.90
2022-08-20T21:04:34.406Z,3.40
2022-08-20T21:07:08.182Z,3.57
2022-08-20T21:09:39.007Z,4.13
2022-08-20T21:12:09.287Z,3.53
2022-08-20T21:14:38.709Z,3.63
2022-08-20T21:17:11.071Z,3.70
2022-08-20T21:19:41.048Z,3.50
2022-08-20T21:22:14.478Z,3.17
2022-08-20T21:24:42.848Z,3.27
2022-08-20T21:27:12.501Z,3.20
2022-08-20T21:29:41.514Z,3.83
2022-08-20T21:32:12.446Z,3.47
2022-08-20T21:34:43.864Z,4.43
2022-08-20T21:37:12.327Z,3.50
2022-08-20T21:39:40.809Z,3.83
2022-08-20T21:42:29.026Z,3.07
2022-08-20T21:44:58.182Z,3.20
2022-08-20T21:47:28.284Z,3.43
2022-08-20T21:49:56.581Z,3.57
2022-08-20T21:52:24.827Z,3.47
2022-08-20T21:54:54.016Z,3.63
2022-08-20T21:57:24.733Z,3.90
2022-08-20T21:59:53.810Z,3.70
2022-08-20T22:02:25.377Z,3.60
2022-08-20T22:04:55.899Z,3.47
2022-08-20T22:07:24.499Z,3.37
2022-08-20T22:09:52.858Z,3.40
2022-08-20T22:12:24.777Z,3.33
2022-08-20T22:14:53.430Z,3.73
2022-08-20T22:17:21.787Z,3.63
2022-08-20T22:19:50.237Z,4.87
2022-08-20T22:22:21.857Z,3.73
2022-08-20T22:24:50.288Z,4.37
2022-08-20T22:27:18.559Z,3.67
2022-08-20T22:29:46.862Z,3.50
2022-08-20T22:32:15.848Z,3.77
2022-08-20T22:34:45.852Z,4.07
2022-08-20T22:37:15.056Z,3.60
2022-08-20T22:39:44.848Z,3.70
2022-08-20T22:42:13.284Z,3.77
2022-08-20T22:44:41.605Z,3.63
2022-08-20T22:47:10.438Z,3.93
2022-08-20T22:49:41.634Z,4.00
2022-08-20T22:52:12.152Z,4.20
2022-08-20T22:54:44.624Z,3.80
2022-08-20T22:57:15.170Z,4.03
2022-08-20T22:59:52.897Z,3.87
2022-08-20T23:02:24.031Z,4.07
2022-08-20T23:04:52.390Z,4.20
2022-08-20T23:07:20.786Z,4.37
2022-08-20T23:09:49.178Z,3.83
2022-08-20T23:12:19.044Z,3.90
2022-08-20T23:14:47.514Z,3.80
2022-08-20T23:17:19.280Z,3.47
2022-08-20T23:19:49.155Z,3.50
2022-08-20T23:22:18.968Z,3.77
2022-08-20T23:24:47.592Z,4.10
2022-08-20T23:27:19.876Z,4.07
2022-08-20T23:29:48.805Z,4.23
2022-08-20T23:32:17.725Z,3.90
2022-08-20T23:34:46.118Z,4.50
2022-08-20T23:37:18.878Z,3.70
2022-08-20T23:39:47.753Z,3.70
2022-08-20T23:42:16.792Z,4.20
2022-08-20T23:44:46.532Z,3.90
2022-08-20T23:47:19.761Z,3.90
2022-08-20T23:49:48.462Z,3.80
2022-08-20T23:52:16.793Z,3.97
2022-08-20T23:54:45.217Z,4.07
2022-08-20T23:57:13.584Z,3.93
2022-08-20T23:59:43.196Z,3.97
